createdAt,value
2023-01-26T00:01:28.660Z,12.18
2023-01-26T00:03:56.788Z,10.82
2023-01-26T00:06:24.766Z,12.23
2023-01-26T00:08:54.516Z,16.27
2023-01-26T00:11:35.685Z,10.57
2023-01-26T00:14:03.889Z,13.90
2023-01-26T00:16:31.078Z,11.38
2023-01-26T00:18:58.343Z,13.60
2023-01-26T00:21:25.664Z,13.05
2023-01-26T00:23:53.380Z,15.27
2023-01-26T00:26:23.458Z,16.48
2023-01-26T00:28:51.190Z,12.95
2023-01-26T00:31:27.159Z,14.80
2023-01-26T00:33:55.782Z,12.48
2023-01-26T00:36:23.124Z,13.35
2023-01-26T00:38:50.264Z,17.75
2023-01-26T00:41:36.201Z,14.38
2023-01-26T00:44:03.467Z,14.52
2023-01-26T00:46:30.891Z,12.80
2023-01-26T00:48:58.174Z,17.45
2023-01-26T00:51:25.380Z,18.58
2023-01-26T00:53:52.553Z,12.98
2023-01-26T00:56:19.751Z,15.85
2023-01-26T00:58:47.297Z,20.95
2023-01-26T01:01:14.601Z,16.65
2023-01-26T01:03:41.883Z,13.13
2023-01-26T01:06:09.058Z,15.43
2023-01-26T01:08:36.260Z,16.65
2023-01-26T01:11:05.795Z,13.48
2023-01-26T01:13:32.982Z,12.32
2023-01-26T01:16:00.395Z,16.13
2023-01-26T01:18:27.614Z,13.45
2023-01-26T01:20:54.799Z,12.15
2023-01-26T01:23:22.057Z,12.88
2023-01-26T01:25:58.225Z,11.93
2023-01-26T01:28:25.517Z,13.45
2023-01-26T01:30:53.049Z,13.77
2023-01-26T01:33:20.496Z,11.93
2023-01-26T01:35:57.489Z,11.52
2023-01-26T01:38:25.323Z,12.55
2023-01-26T01:40:53.694Z,15.50
2023-01-26T01:43:21.726Z,14.90
2023-01-26T01:45:50.200Z,13.70
2023-01-26T01:48:25.435Z,13.27
2023-01-26T01:50:56.395Z,13.45
2023-01-26T01:53:32.999Z,13.10
2023-01-26T01:56:04.364Z,12.85
2023-01-26T01:58:36.852Z,12.88
2023-01-26T02:01:04.222Z,14.50
2023-01-26T02:03:32.200Z,13.75
2023-01-26T02:06:15.909Z,14.07
2023-01-26T02:08:50.752Z,13.05
2023-01-26T02:11:22.383Z,12.48
2023-01-26T02:13:50.384Z,12.95
2023-01-26T02:16:19.613Z,12.63
2023-01-26T02:18:47.299Z,13.27
2023-01-26T02:21:20.133Z,13.52
2023-01-26T02:24:17.968Z,17.40
2023-01-26T02:26:45.161Z,14.68
2023-01-26T02:29:12.588Z,13.25
2023-01-26T02:31:40.899Z,11.77
2023-01-26T02:34:08.220Z,12.23
2023-01-26T02:36:35.669Z,17.23
2023-01-26T02:39:26.934Z,14.30
2023-01-26T02:42:13.666Z,13.35
2023-01-26T02:44:43.312Z,11.40
2023-01-26T02:47:18.791Z,11.68
2023-01-26T02:49:50.778Z,10.27
2023-01-26T02:52:21.977Z,14.05
2023-01-26T02:55:07.970Z,13.82
2023-01-26T02:57:35.550Z,12.23
2023-01-26T03:00:07.852Z,11.20
2023-01-26T03:02:35.291Z,14.73
2023-01-26T03:05:04.864Z,12.15
2023-01-26T03:07:32.396Z,11.75
2023-01-26T03:09:59.750Z,11.98
2023-01-26T03:12:27.600Z,15.40
2023-01-26T03:15:14.799Z,15.52
2023-01-26T03:17:42.185Z,13.90
2023-01-26T03:20:30.004Z,12.20
2023-01-26T03:23:15.886Z,13.13
2023-01-26T03:26:01.673Z,13.38
2023-01-26T03:28:28.994Z,11.95
2023-01-26T03:30:58.210Z,11.88
2023-01-26T03:33:25.426Z,11.77
2023-01-26T03:35:54.719Z,12.27
2023-01-26T03:38:21.902Z,11.80
2023-01-26T03:41:07.597Z,11.02
2023-01-26T03:43:53.292Z,11.60
2023-01-26T03:46:39.053Z,11.50
2023-01-26T03:49:25.034Z,10.90
2023-01-26T03:52:11.104Z,11.80
2023-01-26T03:54:56.890Z,12.27
2023-01-26T03:57:24.112Z,12.85
2023-01-26T03:59:51.279Z,10.45
2023-01-26T04:02:37.119Z,12.15
2023-01-26T04:05:23.241Z,16.23
2023-01-26T04:08:09.244Z,13.95
2023-01-26T04:10:36.489Z,11.65
2023-01-26T04:13:22.174Z,13.65
2023-01-26T04:16:08.025Z,13.20
2023-01-26T04:18:53.874Z,11.57
2023-01-26T04:21:28.071Z,9.25
2023-01-26T04:23:57.454Z,13.05
2023-01-26T04:26:39.602Z,12.50
2023-01-26T04:29:12.542Z,15.07
2023-01-26T04:31:41.288Z,11.20
2023-01-26T04:34:12.659Z,12.50
2023-01-26T04:36:40.419Z,14.10
2023-01-26T04:39:08.088Z,13.82
2023-01-26T04:41:35.325Z,12.68
2023-01-26T04:44:02.598Z,12.20
2023-01-26T04:46:29.849Z,13.20
2023-01-26T04:48:57.037Z,12.02
2023-01-26T04:51:24.721Z,14.70
2023-01-26T04:53:51.997Z,15.82
2023-01-26T04:56:27.887Z,14.48
2023-01-26T04:58:56.511Z,14.50
2023-01-26T05:01:23.864Z,13.45
2023-01-26T05:03:51.124Z,15.63
2023-01-26T05:06:18.383Z,15.27
2023-01-26T05:08:45.890Z,13.85
2023-01-26T05:11:13.109Z,14.43
2023-01-26T05:13:41.549Z,14.07
2023-01-26T05:16:09.138Z,14.85
2023-01-26T05:18:36.488Z,11.38
2023-01-26T05:21:03.723Z,11.98
2023-01-26T05:23:30.934Z,10.63
2023-01-26T05:25:58.227Z,15.38
2023-01-26T05:28:25.505Z,17.00
2023-01-26T05:30:52.836Z,12.63
2023-01-26T05:33:22.666Z,12.77
2023-01-26T05:35:50.360Z,21.33
2023-01-26T05:38:17.934Z,16.08
2023-01-26T05:40:45.332Z,11.52
2023-01-26T05:43:13.415Z,16.15
2023-01-26T05:45:41.116Z,10.80
2023-01-26T05:48:08.361Z,13.43
2023-01-26T05:50:35.558Z,12.90
2023-01-26T05:53:03.960Z,10.18
2023-01-26T05:55:31.234Z,14.80
2023-01-26T05:57:58.395Z,13.00
2023-01-26T06:00:25.710Z,10.82
2023-01-26T06:02:52.951Z,10.18
2023-01-26T06:05:20.208Z,12.80
2023-01-26T06:07:47.418Z,13.15
2023-01-26T06:10:14.619Z,12.18
2023-01-26T06:12:43.229Z,11.57
2023-01-26T06:15:12.833Z,13.27
2023-01-26T06:17:40.349Z,13.20
2023-01-26T06:20:08.685Z,15.23
2023-01-26T06:22:36.244Z,12.68
2023-01-26T06:25:03.524Z,15.82
2023-01-26T06:27:30.694Z,15.05
2023-01-26T06:29:57.789Z,13.48
2023-01-26T06:32:25.691Z,11.43
2023-01-26T06:34:53.929Z,9.75
2023-01-26T06:37:21.234Z,12.02
2023-01-26T06:39:48.374Z,12.27
2023-01-26T06:42:15.558Z,12.13
2023-01-26T06:44:42.690Z,10.80
2023-01-26T06:47:09.967Z,11.93
2023-01-26T06:49:37.094Z,12.93
2023-01-26T06:52:24.788Z,7.57
2023-01-26T06:54:52.853Z,12.05
2023-01-26T06:57:20.179Z,12.70
2023-01-26T06:59:47.373Z,10.25
2023-01-26T07:02:20.097Z,10.65
2023-01-26T07:04:47.993Z,13.55
2023-01-26T07:07:15.382Z,11.57
2023-01-26T07:09:42.598Z,12.75
2023-01-26T07:12:09.902Z,13.32
2023-01-26T07:14:37.122Z,10.65
2023-01-26T07:17:04.476Z,12.15
2023-01-26T07:19:33.401Z,13.18
2023-01-26T07:22:01.482Z,11.80
2023-01-26T07:24:29.318Z,16.92
2023-01-26T07:26:57.193Z,13.38
2023-01-26T07:29:24.424Z,13.95
2023-01-26T07:31:51.847Z,13.85
2023-01-26T07:34:19.135Z,12.00
2023-01-26T07:36:46.294Z,12.55
2023-01-26T07:39:13.472Z,15.80
2023-01-26T07:41:40.724Z,12.38
2023-01-26T07:44:10.651Z,13.40
2023-01-26T07:46:37.961Z,12.98
2023-01-26T07:49:05.195Z,14.50
2023-01-26T07:51:32.361Z,14.50
2023-01-26T07:53:59.807Z,13.13
2023-01-26T07:56:26.912Z,13.57
2023-01-26T07:58:55.039Z,12.23
2023-01-26T08:01:22.665Z,12.15
2023-01-26T08:03:53.841Z,15.88
2023-01-26T08:06:21.294Z,13.40
2023-01-26T08:08:54.122Z,13.32
2023-01-26T08:11:23.163Z,14.23
2023-01-26T08:13:50.259Z,14.70
2023-01-26T08:16:17.641Z,20.73
2023-01-26T08:18:46.875Z,15.85
2023-01-26T08:21:15.902Z,17.55
2023-01-26T08:23:43.468Z,16.10
2023-01-26T08:26:13.791Z,16.85
2023-01-26T08:28:41.702Z,12.57
2023-01-26T08:31:20.126Z,13.85
2023-01-26T08:33:51.057Z,16.65
2023-01-26T08:36:22.076Z,15.52
2023-01-26T08:38:50.316Z,16.05
2023-01-26T08:41:17.939Z,16.25
2023-01-26T08:43:45.228Z,15.32
2023-01-26T08:46:12.487Z,14.38
2023-01-26T08:48:39.613Z,17.52
2023-01-26T08:51:08.300Z,12.70
2023-01-26T08:53:37.519Z,13.90
2023-01-26T08:56:06.402Z,18.58
2023-01-26T08:58:34.022Z,13.25
2023-01-26T09:01:08.442Z,16.55
2023-01-26T09:03:35.932Z,14.93
2023-01-26T09:06:05.263Z,16.00
2023-01-26T09:08:32.913Z,16.27
2023-01-26T09:11:00.427Z,15.85
2023-01-26T09:13:27.860Z,14.40
2023-01-26T09:15:55.054Z,20.83
2023-01-26T09:18:22.271Z,16.35
2023-01-26T09:20:51.329Z,14.10
2023-01-26T09:23:18.719Z,13.98
2023-01-26T09:25:45.967Z,17.08
2023-01-26T09:28:13.334Z,14.07
2023-01-26T09:30:40.499Z,14.75
2023-01-26T09:33:07.664Z,15.27
2023-01-26T09:35:34.836Z,15.30
2023-01-26T09:38:02.102Z,15.35
2023-01-26T09:41:03.595Z,17.83
2023-01-26T09:43:36.732Z,14.90
2023-01-26T09:46:22.463Z,18.92
2023-01-26T09:49:19.616Z,13.63
2023-01-26T09:51:52.220Z,16.45
2023-01-26T09:54:37.512Z,14.00
2023-01-26T09:57:25.103Z,13.77
2023-01-26T10:00:03.375Z,9.88
2023-01-26T10:02:55.097Z,12.93
2023-01-26T10:05:46.589Z,13.57
2023-01-26T10:08:16.936Z,17.42
2023-01-26T10:11:14.354Z,11.80
2023-01-26T10:13:46.485Z,18.17
2023-01-26T10:16:15.061Z,13.07
2023-01-26T10:18:45.179Z,13.93
2023-01-26T10:21:12.899Z,14.07
2023-01-26T10:23:48.015Z,14.25
2023-01-26T10:26:20.519Z,16.30
2023-01-26T10:28:50.671Z,14.73
2023-01-26T10:31:21.791Z,12.40
2023-01-26T10:34:10.081Z,14.20
2023-01-26T10:36:37.328Z,15.48
2023-01-26T10:39:06.880Z,14.10
2023-01-26T10:41:34.488Z,12.70
2023-01-26T10:44:23.931Z,12.25
2023-01-26T10:47:16.815Z,13.02
2023-01-26T10:49:44.252Z,14.40
2023-01-26T10:52:28.096Z,15.80
2023-01-26T10:55:12.743Z,12.07
2023-01-26T10:57:42.637Z,12.68
2023-01-26T11:00:29.624Z,11.60
2023-01-26T11:03:16.408Z,15.10
2023-01-26T11:05:45.125Z,13.25
2023-01-26T11:08:35.192Z,15.77
2023-01-26T11:11:03.990Z,13.65
2023-01-26T11:13:31.251Z,12.02
2023-01-26T11:16:25.346Z,12.63
2023-01-26T11:19:13.842Z,16.17
2023-01-26T11:22:06.451Z,19.15
2023-01-26T11:24:46.576Z,15.38
2023-01-26T11:27:53.403Z,14.32
2023-01-26T11:30:44.075Z,15.95
2023-01-26T11:35:59.685Z,14.85
2023-01-26T11:38:45.988Z,16.70
2023-01-26T11:41:51.991Z,11.32
2023-01-26T11:44:55.272Z,13.75
2023-01-26T11:47:26.192Z,12.82
2023-01-26T11:50:20.259Z,13.85
2023-01-26T11:52:58.010Z,13.43
2023-01-26T11:55:43.280Z,18.83
2023-01-26T11:58:20.521Z,14.30
2023-01-26T12:00:55.500Z,13.52
2023-01-26T12:03:26.216Z,16.95
2023-01-26T12:05:59.095Z,18.65
2023-01-26T12:08:41.291Z,15.63
2023-01-26T12:11:27.580Z,16.25
2023-01-26T12:14:14.731Z,20.73
2023-01-26T12:17:18.021Z,16.65
2023-01-26T12:20:04.830Z,15.15
2023-01-26T12:22:47.043Z,13.98
2023-01-26T12:25:40.106Z,16.75
2023-01-26T12:28:12.933Z,15.25
2023-01-26T12:30:52.369Z,17.48
2023-01-26T12:33:19.735Z,19.58
2023-01-26T12:36:05.243Z,15.63
2023-01-26T12:38:56.419Z,15.27
2023-01-26T12:41:38.537Z,15.70
2023-01-26T12:44:27.310Z,14.90
2023-01-26T12:47:00.164Z,12.70
2023-01-26T12:49:58.594Z,18.77
2023-01-26T12:53:02.275Z,15.07
2023-01-26T12:55:40.374Z,17.20
2023-01-26T12:58:24.418Z,14.35
2023-01-26T13:01:09.968Z,17.50
2023-01-26T13:03:55.843Z,18.15
2023-01-26T13:06:28.377Z,19.08
2023-01-26T13:08:59.873Z,18.08
2023-01-26T13:11:45.846Z,16.10
2023-01-26T13:14:33.579Z,16.15
2023-01-26T13:17:22.588Z,14.55
2023-01-26T13:20:00.133Z,15.52
2023-01-26T13:22:27.421Z,14.07
2023-01-26T13:25:00.003Z,14.38
2023-01-26T13:27:39.275Z,13.90
2023-01-26T13:30:27.293Z,14.68
2023-01-26T13:33:05.563Z,13.32
2023-01-26T13:35:33.740Z,12.38
2023-01-26T13:38:37.137Z,15.00
2023-01-26T13:41:10.523Z,12.45
2023-01-26T13:43:42.620Z,12.82
2023-01-26T13:46:25.663Z,14.48
2023-01-26T13:48:54.991Z,13.18
2023-01-26T13:51:31.284Z,15.52
2023-01-26T13:54:18.116Z,13.50
2023-01-26T13:57:06.615Z,14.35
2023-01-26T13:59:34.094Z,12.10
2023-01-26T14:02:01.771Z,16.50
2023-01-26T14:04:30.288Z,12.27
2023-01-26T14:07:07.238Z,14.43
2023-01-26T14:09:48.792Z,14.73
2023-01-26T14:12:25.442Z,12.00
2023-01-26T14:15:00.713Z,14.18
2023-01-26T14:17:48.985Z,19.77
2023-01-26T14:20:39.709Z,12.93
2023-01-26T14:25:45.147Z,14.40
2023-01-26T14:28:18.985Z,11.77
2023-01-26T14:30:57.791Z,14.30
2023-01-26T14:33:25.563Z,12.50
2023-01-26T14:36:01.668Z,13.20
2023-01-26T14:38:33.113Z,13.00
2023-01-26T14:41:01.673Z,12.48
2023-01-26T14:43:29.001Z,13.95
2023-01-26T14:46:03.821Z,14.55
2023-01-26T14:48:37.904Z,14.88
2023-01-26T14:51:07.242Z,14.57
2023-01-26T14:53:34.598Z,15.15
2023-01-26T14:56:01.936Z,11.55
2023-01-26T14:58:32.931Z,15.48
2023-01-26T15:01:01.638Z,12.65
2023-01-26T15:03:39.276Z,11.98
2023-01-26T15:06:20.616Z,12.98
2023-01-26T15:09:01.096Z,14.10
2023-01-26T15:11:56.063Z,13.82
2023-01-26T15:14:56.410Z,14.93
2023-01-26T15:17:43.421Z,14.02
2023-01-26T15:20:16.439Z,14.20
2023-01-26T15:22:53.822Z,12.13
2023-01-26T15:25:26.460Z,13.65
2023-01-26T15:27:59.290Z,17.13
2023-01-26T15:30:33.093Z,11.90
2023-01-26T15:33:00.706Z,12.52
2023-01-26T15:35:33.532Z,11.55
2023-01-26T15:38:06.663Z,14.40
2023-01-26T15:40:33.939Z,12.55
2023-01-26T15:43:18.779Z,12.43
2023-01-26T15:45:57.712Z,12.98
2023-01-26T15:48:25.706Z,13.95
2023-01-26T15:50:53.536Z,12.38
2023-01-26T15:53:22.545Z,12.55
2023-01-26T15:55:56.215Z,15.10
2023-01-26T15:58:24.560Z,13.68
2023-01-26T16:00:55.246Z,14.80
2023-01-26T16:03:22.807Z,16.27
2023-01-26T16:05:50.363Z,14.68
2023-01-26T16:08:18.915Z,10.93
2023-01-26T16:10:47.032Z,13.80
2023-01-26T16:13:18.109Z,13.82
2023-01-26T16:15:51.278Z,14.40
2023-01-26T16:18:19.100Z,14.25
2023-01-26T16:20:48.609Z,14.98
2023-01-26T16:23:20.582Z,14.40
2023-01-26T16:25:48.903Z,13.73
2023-01-26T16:28:16.287Z,12.55
2023-01-26T16:30:45.417Z,13.68
2023-01-26T16:33:14.849Z,12.88
2023-01-26T16:35:42.448Z,13.25
2023-01-26T16:38:13.230Z,18.52
2023-01-26T16:40:45.095Z,12.43
2023-01-26T16:43:30.666Z,14.45
2023-01-26T16:45:58.162Z,12.80
2023-01-26T16:48:25.463Z,15.48
2023-01-26T16:50:54.420Z,14.95
2023-01-26T16:53:25.569Z,13.43
2023-01-26T16:55:54.268Z,12.23
2023-01-26T16:58:22.712Z,16.15
2023-01-26T17:00:50.097Z,12.95
2023-01-26T17:03:17.339Z,14.20
2023-01-26T17:05:44.603Z,13.60
2023-01-26T17:08:11.989Z,13.55
2023-01-26T17:10:48.899Z,13.10
2023-01-26T17:13:26.683Z,14.70
2023-01-26T17:15:56.223Z,17.52
2023-01-26T17:18:23.642Z,14.43
2023-01-26T17:20:50.775Z,15.65
2023-01-26T17:23:18.143Z,14.80
2023-01-26T17:25:45.465Z,15.32
2023-01-26T17:28:12.764Z,15.55
2023-01-26T17:30:39.955Z,13.30
2023-01-26T17:33:07.189Z,15.15
2023-01-26T17:35:34.360Z,12.68
2023-01-26T17:38:01.624Z,18.55
2023-01-26T17:40:28.816Z,13.23
2023-01-26T17:42:55.984Z,15.40
2023-01-26T17:45:23.553Z,19.88
2023-01-26T17:47:50.880Z,13.00
2023-01-26T17:50:18.156Z,14.60
2023-01-26T17:52:45.309Z,13.55
2023-01-26T17:55:13.003Z,11.80
2023-01-26T17:57:40.404Z,14.73
2023-01-26T18:00:08.393Z,13.00
2023-01-26T18:02:37.884Z,15.27
2023-01-26T18:05:05.661Z,14.23
2023-01-26T18:07:32.919Z,18.88
2023-01-26T18:10:00.147Z,18.25
2023-01-26T18:12:27.299Z,19.38
2023-01-26T18:14:55.253Z,14.18
2023-01-26T18:17:22.525Z,12.07
2023-01-26T18:19:49.791Z,15.63
2023-01-26T18:22:17.044Z,16.00
2023-01-26T18:24:44.179Z,13.85
2023-01-26T18:27:11.939Z,12.48
2023-01-26T18:29:39.298Z,14.45
2023-01-26T18:32:06.751Z,14.45
2023-01-26T18:34:34.248Z,13.80
2023-01-26T18:37:01.442Z,13.88
2023-01-26T18:39:29.140Z,14.50
2023-01-26T18:41:56.435Z,11.75
2023-01-26T18:44:26.074Z,17.08
2023-01-26T18:49:21.437Z,9.93
2023-01-26T18:51:49.329Z,11.90
2023-01-26T18:54:18.080Z,12.40
2023-01-26T18:56:45.706Z,11.77
2023-01-26T18:59:13.060Z,11.82
2023-01-26T19:01:40.527Z,15.43
2023-01-26T19:04:07.830Z,13.32
2023-01-26T19:06:35.549Z,13.50
2023-01-26T19:09:05.790Z,14.15
2023-01-26T19:11:36.452Z,12.40
2023-01-26T19:14:04.668Z,13.57
2023-01-26T19:16:32.456Z,12.48
2023-01-26T19:18:59.798Z,11.93
2023-01-26T19:21:27.924Z,12.20
2023-01-26T19:23:56.903Z,11.90
2023-01-26T19:26:26.426Z,10.35
2023-01-26T19:28:54.669Z,10.52
2023-01-26T19:31:22.873Z,11.57
2023-01-26T19:33:51.748Z,14.05
2023-01-26T19:36:20.884Z,13.20
2023-01-26T19:38:48.243Z,11.65
2023-01-26T19:41:15.844Z,11.68
2023-01-26T19:43:44.608Z,12.80
2023-01-26T19:46:16.673Z,11.80
2023-01-26T19:48:44.580Z,11.43
2023-01-26T19:51:17.806Z,11.05
2023-01-26T19:53:50.033Z,10.90
2023-01-26T19:56:22.712Z,11.48
2023-01-26T19:58:52.253Z,11.93
2023-01-26T20:01:20.380Z,11.85
2023-01-26T20:03:58.677Z,10.57
2023-01-26T20:06:28.873Z,10.45
2023-01-26T20:08:56.593Z,10.80
2023-01-26T20:11:29.129Z,10.02
2023-01-26T20:14:01.867Z,10.25
2023-01-26T20:16:30.456Z,10.85
2023-01-26T20:18:59.367Z,11.00
2023-01-26T20:21:27.796Z,10.82
2023-01-26T20:23:56.146Z,10.30
2023-01-26T20:26:25.123Z,11.38
2023-01-26T20:28:54.532Z,11.18
2023-01-26T20:31:25.438Z,11.50
2023-01-26T20:33:54.052Z,12.63
2023-01-26T20:36:24.970Z,10.82
2023-01-26T20:38:52.275Z,8.98
2023-01-26T20:41:22.894Z,9.18
2023-01-26T20:46:29.699Z,10.38
2023-01-26T20:48:57.455Z,9.55
2023-01-26T20:51:29.620Z,10.90
2023-01-26T20:53:57.897Z,9.30
2023-01-26T20:56:25.516Z,9.55
2023-01-26T20:58:54.181Z,9.77
2023-01-26T21:01:22.589Z,9.55
2023-01-26T21:03:50.937Z,10.77
2023-01-26T21:06:19.796Z,9.32
2023-01-26T21:08:48.285Z,9.73
2023-01-26T21:11:17.658Z,11.30
2023-01-26T21:13:45.600Z,9.45
2023-01-26T21:16:17.162Z,9.30
2023-01-26T21:18:46.266Z,10.77
2023-01-26T21:21:17.836Z,12.40
2023-01-26T21:23:46.401Z,11.40
2023-01-26T21:26:21.883Z,10.13
2023-01-26T21:28:52.162Z,11.48
2023-01-26T21:31:21.133Z,10.20
2023-01-26T21:33:49.319Z,10.95
2023-01-26T21:36:20.097Z,9.75
2023-01-26T21:38:50.988Z,10.23
2023-01-26T21:41:45.296Z,7.85
2023-01-26T21:44:18.008Z,10.23
2023-01-26T21:46:46.498Z,8.43
2023-01-26T21:49:14.727Z,10.05
2023-01-26T21:52:00.949Z,9.10
2023-01-26T21:54:30.057Z,9.80
2023-01-26T21:56:58.492Z,11.00
2023-01-26T21:59:25.939Z,9.43
2023-01-26T22:01:55.035Z,12.93
2023-01-26T22:04:28.370Z,8.55
2023-01-26T22:06:56.344Z,9.13
2023-01-26T22:09:24.316Z,9.38
2023-01-26T22:11:52.389Z,8.65
2023-01-26T22:14:27.647Z,7.82
2023-01-26T22:16:54.870Z,8.30
2023-01-26T22:19:22.086Z,8.43
2023-01-26T22:21:49.231Z,7.57
2023-01-26T22:24:18.351Z,8.18
2023-01-26T22:26:45.743Z,7.60
2023-01-26T22:29:13.449Z,8.38
2023-01-26T22:31:41.991Z,7.57
2023-01-26T22:34:11.488Z,8.88
2023-01-26T22:36:39.488Z,7.32
2023-01-26T22:39:06.704Z,7.25
2023-01-26T22:41:34.972Z,7.55
2023-01-26T22:44:02.459Z,7.95
2023-01-26T22:46:30.907Z,6.88
2023-01-26T22:48:59.198Z,6.90
2023-01-26T22:51:31.162Z,7.40
2023-01-26T22:53:59.715Z,7.10
2023-01-26T22:56:27.481Z,6.95
2023-01-26T22:58:59.938Z,6.28
2023-01-26T23:01:29.613Z,6.93
2023-01-26T23:03:57.684Z,6.72
2023-01-26T23:06:25.883Z,6.60
2023-01-26T23:08:53.527Z,7.32
2023-01-26T23:11:26.452Z,6.53
2023-01-26T23:13:55.466Z,7.35
2023-01-26T23:16:23.915Z,7.00
2023-01-26T23:18:53.130Z,7.53
2023-01-26T23:21:20.510Z,7.57
2023-01-26T23:23:47.816Z,7.55
2023-01-26T23:26:15.035Z,6.93
2023-01-26T23:28:43.702Z,7.68
2023-01-26T23:31:12.860Z,7.50
2023-01-26T23:33:40.263Z,7.40
2023-01-26T23:36:08.943Z,7.53
2023-01-26T23:38:36.489Z,6.80
2023-01-26T23:41:05.663Z,7.25
2023-01-26T23:43:33.059Z,7.05
2023-01-26T23:46:00.533Z,7.40
2023-01-26T23:48:27.858Z,8.27
2023-01-26T23:51:00.246Z,7.28
2023-01-26T23:53:28.486Z,7.90
2023-01-26T23:55:56.098Z,8.38
2023-01-26T23:58:23.510Z,7.65
